createdAt,value
2019-03-24T00:02:07.851Z,42.73
2019-03-24T00:04:37.722Z,42.97
2019-03-24T00:07:07.672Z,42.97
2019-03-24T00:09:37.519Z,42.73
2019-03-24T00:12:07.463Z,42.70
2019-03-24T00:14:37.430Z,45.03
2019-03-24T00:17:07.404Z,43.77
2019-03-24T00:19:37.326Z,40.70
2019-03-24T00:22:07.368Z,42.47
2019-03-24T00:24:37.243Z,44.57
2019-03-24T00:27:07.196Z,43.40
2019-03-24T00:29:37.154Z,41.23
2019-03-24T00:32:07.104Z,43.47
2019-03-24T00:34:37.122Z,42.90
2019-03-24T00:37:06.996Z,43.80
2019-03-24T00:39:36.945Z,44.30
2019-03-24T00:42:06.903Z,44.80
2019-03-24T00:44:36.823Z,42.67
2019-03-24T00:47:07.317Z,42.13
2019-03-24T00:49:37.362Z,42.73
2019-03-24T00:52:07.314Z,44.33
2019-03-24T00:54:37.247Z,44.50
2019-03-24T00:57:07.176Z,42.67
2019-03-24T00:59:37.551Z,43.03
2019-03-24T01:02:07.491Z,43.77
2019-03-24T01:04:37.354Z,44.67
2019-03-24T01:07:07.445Z,42.83
2019-03-24T01:09:37.396Z,44.60
2019-03-24T01:12:07.409Z,43.83
2019-03-24T01:14:37.302Z,44.30
2019-03-24T01:17:07.295Z,43.47
2019-03-24T01:19:37.235Z,46.10
2019-03-24T01:22:07.249Z,46.17
2019-03-24T01:24:37.129Z,44.70
2019-03-24T01:27:06.980Z,44.50
2019-03-24T01:29:36.847Z,44.83
2019-03-24T01:32:06.799Z,47.33
2019-03-24T01:34:36.678Z,44.80
2019-03-24T01:37:06.609Z,47.07
2019-03-24T01:39:36.472Z,46.13
2019-03-24T01:42:06.330Z,49.00
2019-03-24T01:44:36.197Z,47.70
2019-03-24T01:47:06.130Z,48.63
2019-03-24T01:49:36.070Z,45.57
2019-03-24T01:52:05.921Z,47.53
2019-03-24T01:54:35.919Z,47.37
2019-03-24T01:57:05.847Z,46.43
2019-03-24T01:59:35.793Z,47.70
2019-03-24T02:02:05.806Z,48.03
2019-03-24T02:04:35.753Z,47.17
2019-03-24T02:07:05.620Z,46.27
2019-03-24T02:09:35.488Z,46.87
2019-03-24T02:12:06.441Z,48.23
2019-03-24T02:14:36.380Z,47.47
2019-03-24T02:17:06.247Z,43.67
2019-03-24T02:19:36.092Z,45.97
2019-03-24T02:22:06.037Z,46.83
2019-03-24T02:24:35.990Z,45.50
2019-03-24T02:27:05.913Z,46.10
2019-03-24T02:29:35.789Z,46.20
2019-03-24T02:32:05.706Z,46.50
2019-03-24T02:34:35.598Z,47.80
2019-03-24T02:37:05.607Z,48.40
2019-03-24T02:39:35.570Z,46.07
2019-03-24T02:42:05.668Z,46.37
2019-03-24T02:44:35.602Z,47.93
2019-03-24T02:47:05.698Z,45.90
2019-03-24T02:49:35.653Z,47.90
2019-03-24T02:52:05.630Z,49.13
2019-03-24T02:54:35.503Z,48.20
2019-03-24T02:57:05.576Z,47.80
2019-03-24T02:59:35.560Z,47.87
2019-03-24T03:02:05.639Z,49.27
2019-03-24T03:04:35.604Z,50.00
2019-03-24T03:07:05.519Z,49.57
2019-03-24T03:09:35.469Z,48.77
2019-03-24T03:12:05.398Z,49.93
2019-03-24T03:14:36.422Z,50.07
2019-03-24T03:17:06.336Z,46.93
2019-03-24T03:19:36.273Z,50.47
2019-03-24T03:22:06.197Z,49.40
2019-03-24T03:24:36.142Z,49.60
2019-03-24T03:27:06.194Z,48.20
2019-03-24T03:29:36.070Z,46.43
2019-03-24T03:32:05.926Z,49.40
2019-03-24T03:34:35.955Z,47.23
2019-03-24T03:37:05.955Z,50.10
2019-03-24T03:39:35.896Z,50.03
2019-03-24T03:42:05.894Z,46.83
2019-03-24T03:44:36.089Z,47.47
2019-03-24T03:47:07.094Z,47.30
2019-03-24T03:49:37.024Z,48.23
2019-03-24T03:52:06.889Z,48.97
2019-03-24T03:54:36.810Z,47.63
2019-03-24T03:57:06.686Z,47.80
2019-03-24T03:59:36.621Z,47.53
2019-03-24T04:02:06.498Z,46.83
2019-03-24T04:04:36.423Z,47.77
2019-03-24T04:07:06.348Z,48.00
2019-03-24T04:09:36.245Z,49.00
2019-03-24T04:12:06.160Z,47.87
2019-03-24T04:14:36.016Z,48.10
2019-03-24T04:17:07.862Z,46.53
2019-03-24T04:19:37.441Z,48.03
2019-03-24T04:22:07.366Z,48.90
2019-03-24T04:24:37.296Z,46.87
2019-03-24T04:27:07.143Z,51.17
2019-03-24T04:29:37.017Z,49.00
2019-03-24T04:32:06.866Z,48.63
2019-03-24T04:34:36.745Z,50.47
2019-03-24T04:37:06.739Z,49.03
2019-03-24T04:39:36.621Z,46.03
2019-03-24T04:42:06.470Z,48.20
2019-03-24T04:44:36.344Z,49.67
2019-03-24T04:47:16.180Z,47.03
2019-03-24T04:49:37.773Z,48.83
2019-03-24T04:52:07.621Z,46.77
2019-03-24T04:54:37.498Z,47.73
2019-03-24T04:57:07.357Z,47.03
2019-03-24T04:59:37.304Z,48.03
2019-03-24T05:02:07.139Z,47.00
2019-03-24T05:04:37.008Z,46.93
2019-03-24T05:07:06.944Z,49.23
2019-03-24T05:09:37.575Z,49.50
2019-03-24T05:12:07.500Z,47.13
2019-03-24T05:14:37.512Z,47.57
2019-03-24T05:17:07.375Z,47.00
2019-03-24T05:19:37.323Z,46.93
2019-03-24T05:22:07.197Z,49.70
2019-03-24T05:24:37.050Z,48.20
2019-03-24T05:27:06.922Z,50.87
2019-03-24T05:29:36.775Z,46.97
2019-03-24T05:32:06.724Z,49.03
2019-03-24T05:34:36.592Z,48.77
2019-03-24T05:37:06.456Z,46.97
2019-03-24T05:39:36.331Z,49.80
2019-03-24T05:42:06.260Z,48.63
2019-03-24T05:44:36.916Z,46.87
2019-03-24T05:47:06.765Z,47.87
2019-03-24T05:49:37.238Z,45.77
2019-03-24T05:52:07.503Z,46.37
2019-03-24T05:54:37.553Z,49.30
2019-03-24T05:57:07.411Z,46.87
2019-03-24T05:59:37.403Z,47.00
2019-03-24T06:02:07.431Z,45.53
2019-03-24T06:04:37.613Z,45.63
2019-03-24T06:07:07.641Z,43.90
2019-03-24T06:09:37.609Z,44.00
2019-03-24T06:12:07.784Z,43.20
2019-03-24T06:14:37.839Z,45.47
2019-03-24T06:17:07.913Z,43.03
2019-03-24T06:19:37.796Z,43.67
2019-03-24T06:22:07.800Z,43.93
2019-03-24T06:24:37.792Z,42.50
2019-03-24T06:27:07.951Z,41.00
2019-03-24T06:29:37.878Z,42.60
2019-03-24T06:32:07.758Z,44.47
2019-03-24T06:34:37.675Z,42.27
2019-03-24T06:37:07.572Z,42.30
2019-03-24T06:39:37.454Z,42.80
2019-03-24T06:42:07.377Z,42.20
2019-03-24T06:44:37.467Z,41.90
2019-03-24T06:47:07.722Z,40.30
2019-03-24T06:49:37.591Z,41.40
2019-03-24T06:52:07.587Z,42.43
2019-03-24T06:54:37.536Z,39.10
2019-03-24T06:57:07.417Z,43.30
2019-03-24T06:59:37.285Z,43.30
2019-03-24T07:02:07.236Z,41.27
2019-03-24T07:04:37.330Z,42.70
2019-03-24T07:07:07.350Z,42.83
2019-03-24T07:09:37.371Z,39.10
2019-03-24T07:12:08.064Z,40.47
2019-03-24T07:14:38.212Z,42.50
2019-03-24T07:17:08.098Z,41.20
2019-03-24T07:19:37.984Z,41.57
2019-03-24T07:22:07.912Z,39.50
2019-03-24T07:24:37.776Z,39.60
2019-03-24T07:27:07.720Z,39.90
2019-03-24T07:29:37.582Z,41.63
2019-03-24T07:32:07.447Z,39.70
2019-03-24T07:34:37.440Z,41.70
2019-03-24T07:37:07.360Z,40.83
2019-03-24T07:39:37.225Z,40.13
2019-03-24T07:42:07.168Z,39.87
2019-03-24T07:44:37.067Z,40.93
2019-03-24T07:47:11.865Z,37.30
2019-03-24T07:49:42.827Z,39.60
2019-03-24T07:52:12.731Z,39.70
2019-03-24T07:54:42.661Z,40.10
2019-03-24T07:57:12.623Z,40.47
2019-03-24T07:59:42.565Z,40.00
2019-03-24T08:02:12.532Z,40.07
2019-03-24T08:04:50.794Z,40.37
2019-03-24T08:07:22.977Z,39.07
2019-03-24T08:09:52.863Z,40.67
2019-03-24T08:12:22.812Z,40.97
2019-03-24T08:14:52.739Z,37.60
2019-03-24T08:17:22.780Z,38.50
2019-03-24T08:19:52.729Z,39.93
2019-03-24T08:22:22.609Z,39.17
2019-03-24T08:24:52.472Z,39.33
2019-03-24T08:27:22.442Z,38.93
2019-03-24T08:29:52.386Z,38.87
2019-03-24T08:32:22.335Z,39.10
2019-03-24T08:34:58.755Z,39.17
2019-03-24T08:37:28.661Z,40.27
2019-03-24T08:39:58.673Z,37.53
2019-03-24T08:42:28.663Z,37.00
2019-03-24T08:44:58.608Z,39.53
2019-03-24T08:47:28.549Z,39.33
2019-03-24T08:49:58.544Z,37.53
2019-03-24T08:52:28.399Z,38.17
2019-03-24T08:54:59.849Z,36.97
2019-03-24T08:57:32.325Z,34.67
2019-03-24T09:00:03.801Z,36.63
2019-03-24T09:02:33.223Z,36.03
2019-03-24T09:05:03.919Z,37.03
2019-03-24T09:07:33.865Z,35.53
2019-03-24T09:10:06.285Z,37.20
2019-03-24T09:12:36.279Z,34.77
2019-03-24T09:15:06.973Z,35.37
2019-03-24T09:17:37.156Z,34.97
2019-03-24T09:20:07.760Z,35.40
2019-03-24T09:22:37.619Z,35.77
2019-03-24T09:25:07.809Z,36.40
2019-03-24T09:27:37.932Z,36.70
2019-03-24T09:30:13.815Z,35.53
2019-03-24T09:32:43.686Z,34.30
2019-03-24T09:35:14.310Z,35.07
2019-03-24T09:37:44.396Z,35.73
2019-03-24T09:40:18.628Z,36.87
2019-03-24T09:42:48.883Z,35.80
2019-03-24T09:45:18.806Z,36.50
2019-03-24T09:47:48.994Z,36.17
2019-03-24T09:50:19.224Z,35.90
2019-03-24T09:52:49.482Z,35.93
2019-03-24T09:55:19.608Z,35.57
2019-03-24T09:57:49.747Z,37.27
2019-03-24T10:00:19.675Z,36.47
2019-03-24T10:02:49.750Z,37.20
2019-03-24T10:05:20.843Z,36.00
2019-03-24T10:07:50.877Z,37.67
2019-03-24T10:10:20.936Z,36.80
2019-03-24T10:12:52.276Z,36.70
2019-03-24T10:15:22.422Z,36.10
2019-03-24T10:17:52.479Z,34.37
2019-03-24T10:20:22.492Z,34.93
2019-03-24T10:22:52.666Z,36.60
2019-03-24T10:25:22.819Z,35.57
2019-03-24T10:27:53.040Z,35.87
2019-03-24T10:30:24.009Z,36.93
2019-03-24T10:32:54.052Z,37.57
2019-03-24T10:35:24.133Z,37.50
2019-03-24T10:37:54.142Z,37.63
2019-03-24T10:40:28.959Z,38.40
2019-03-24T10:42:55.994Z,40.20
2019-03-24T10:45:25.908Z,39.93
2019-03-24T10:47:55.848Z,39.87
2019-03-24T10:50:25.782Z,41.10
2019-03-24T10:52:56.105Z,38.60
2019-03-24T10:55:26.223Z,38.83
2019-03-24T10:57:56.426Z,38.00
2019-03-24T11:00:42.774Z,36.63
2019-03-24T11:03:13.028Z,39.03
2019-03-24T11:05:43.036Z,37.03
2019-03-24T11:08:13.122Z,40.17
2019-03-24T11:10:43.123Z,40.07
2019-03-24T11:13:13.110Z,39.00
2019-03-24T11:15:43.061Z,38.67
2019-03-24T11:18:12.935Z,41.63
2019-03-24T11:20:42.796Z,39.43
2019-03-24T11:23:12.683Z,40.27
2019-03-24T11:25:42.565Z,39.80
2019-03-24T11:28:12.507Z,40.20
2019-03-24T11:30:42.480Z,39.97
2019-03-24T11:33:12.483Z,38.37
2019-03-24T11:35:42.378Z,38.40
2019-03-24T11:38:12.423Z,35.27
2019-03-24T11:40:42.387Z,40.07
2019-03-24T11:43:12.585Z,38.33
2019-03-24T11:45:42.566Z,36.20
2019-03-24T11:48:12.506Z,38.77
2019-03-24T11:50:42.386Z,40.47
2019-03-24T11:53:12.338Z,39.73
2019-03-24T11:55:42.215Z,42.03
2019-03-24T11:58:12.074Z,41.23
2019-03-24T12:00:42.014Z,71.43
2019-03-24T12:03:11.867Z,49.90
2019-03-24T12:05:41.758Z,44.47
2019-03-24T12:08:11.720Z,41.00
2019-03-24T12:10:41.672Z,41.77
2019-03-24T12:13:11.613Z,41.40
2019-03-24T12:15:41.562Z,39.97
2019-03-24T12:18:12.585Z,40.40
2019-03-24T12:20:42.528Z,46.47
2019-03-24T12:23:12.404Z,50.77
2019-03-24T12:25:42.425Z,42.07
2019-03-24T12:28:12.360Z,42.57
2019-03-24T12:30:42.234Z,56.07
2019-03-24T12:33:12.275Z,42.33
2019-03-24T12:35:42.188Z,42.60
2019-03-24T12:38:12.146Z,40.80
2019-03-24T12:40:42.111Z,41.47
2019-03-24T12:43:19.342Z,42.60
2019-03-24T12:45:43.807Z,39.73
2019-03-24T12:48:13.867Z,39.07
2019-03-24T12:50:43.862Z,39.50
2019-03-24T12:53:13.985Z,38.23
2019-03-24T12:55:44.032Z,37.67
2019-03-24T12:58:13.986Z,38.23
2019-03-24T13:00:44.045Z,37.90
2019-03-24T13:03:14.000Z,38.40
2019-03-24T13:06:03.414Z,38.70
2019-03-24T13:08:33.459Z,38.23
2019-03-24T13:11:03.409Z,37.93
2019-03-24T13:13:33.340Z,37.10
2019-03-24T13:16:04.376Z,37.97
2019-03-24T13:18:34.316Z,37.27
2019-03-24T13:21:04.277Z,37.97
2019-03-24T13:23:34.378Z,36.33
2019-03-24T13:26:04.400Z,40.93
2019-03-24T13:28:34.462Z,38.00
2019-03-24T13:31:04.667Z,38.23
2019-03-24T13:33:34.628Z,38.57
2019-03-24T13:36:06.218Z,37.43
2019-03-24T13:38:36.248Z,37.70
2019-03-24T13:41:06.239Z,39.20
2019-03-24T13:43:36.157Z,38.97
2019-03-24T13:46:06.152Z,38.30
2019-03-24T13:48:36.046Z,38.80
2019-03-24T13:51:05.900Z,37.77
2019-03-24T13:53:35.849Z,37.70
2019-03-24T13:56:05.774Z,38.53
2019-03-24T13:58:35.693Z,38.63
2019-03-24T14:01:06.937Z,37.77
2019-03-24T14:03:36.826Z,38.40
2019-03-24T14:06:06.752Z,38.20
2019-03-24T14:08:36.624Z,36.83
2019-03-24T14:11:06.509Z,36.13
2019-03-24T14:13:36.556Z,37.60
2019-03-24T14:16:06.455Z,35.57
2019-03-24T14:18:36.318Z,37.03
2019-03-24T14:21:06.355Z,37.17
2019-03-24T14:23:36.296Z,39.47
2019-03-24T14:26:06.199Z,37.17
2019-03-24T14:28:36.150Z,37.87
2019-03-24T14:31:06.050Z,38.40
2019-03-24T14:33:36.157Z,37.73
2019-03-24T14:36:06.185Z,38.80
2019-03-24T14:38:36.048Z,38.93
2019-03-24T14:41:25.399Z,39.80
2019-03-24T14:43:55.262Z,40.23
2019-03-24T14:46:25.250Z,39.17
2019-03-24T14:48:55.193Z,39.87
2019-03-24T14:51:25.075Z,37.33
2019-03-24T14:53:54.931Z,39.27
2019-03-24T14:56:24.824Z,39.50
2019-03-24T14:58:54.764Z,38.83
2019-03-24T15:01:24.719Z,39.17
2019-03-24T15:03:54.656Z,37.70
2019-03-24T15:06:24.527Z,37.77
2019-03-24T15:08:54.483Z,38.87
2019-03-24T15:11:24.415Z,37.70
2019-03-24T15:13:54.375Z,38.67
2019-03-24T15:16:24.314Z,39.00
2019-03-24T15:18:54.271Z,38.53
2019-03-24T15:21:24.996Z,37.30
2019-03-24T15:23:54.881Z,38.23
2019-03-24T15:26:24.830Z,37.00
2019-03-24T15:28:54.776Z,37.03
2019-03-24T15:31:24.639Z,36.90
2019-03-24T15:33:54.520Z,37.80
2019-03-24T15:36:24.431Z,38.00
2019-03-24T15:38:54.395Z,36.50
2019-03-24T15:41:24.275Z,36.47
2019-03-24T15:43:54.134Z,36.07
2019-03-24T15:46:24.086Z,36.83
2019-03-24T15:48:55.007Z,35.80
2019-03-24T15:51:24.894Z,34.97
2019-03-24T15:53:54.916Z,36.43
2019-03-24T15:56:24.851Z,34.47
2019-03-24T15:58:54.790Z,35.70
2019-03-24T16:01:24.648Z,34.67
2019-03-24T16:03:54.591Z,35.13
2019-03-24T16:06:24.554Z,36.60
2019-03-24T16:08:54.577Z,34.33
2019-03-24T16:11:24.460Z,35.20
2019-03-24T16:13:54.414Z,34.37
2019-03-24T16:16:24.356Z,33.97
2019-03-24T16:18:54.297Z,33.27
2019-03-24T16:21:28.115Z,33.07
2019-03-24T16:23:55.828Z,33.83
2019-03-24T16:26:25.796Z,34.67
2019-03-24T16:28:55.665Z,35.33
2019-03-24T16:31:25.617Z,34.77
2019-03-24T16:33:55.557Z,34.77
2019-03-24T16:36:25.437Z,36.33
2019-03-24T16:39:03.194Z,34.10
2019-03-24T16:41:26.960Z,35.50
2019-03-24T16:43:56.917Z,35.43
2019-03-24T16:46:26.829Z,34.73
2019-03-24T16:48:59.818Z,33.67
2019-03-24T16:51:38.188Z,48.07
2019-03-24T16:54:01.328Z,38.60
2019-03-24T16:56:32.370Z,33.27
2019-03-24T16:59:02.312Z,33.90
2019-03-24T17:01:32.323Z,34.67
2019-03-24T17:04:02.191Z,34.13
2019-03-24T17:06:32.043Z,34.17
2019-03-24T17:09:01.922Z,34.20
2019-03-24T17:11:33.152Z,43.97
2019-03-24T17:14:03.117Z,50.80
2019-03-24T17:16:32.988Z,34.20
2019-03-24T17:19:02.948Z,34.93
2019-03-24T17:21:32.853Z,33.90
2019-03-24T17:24:02.802Z,34.03
2019-03-24T17:26:32.803Z,34.00
2019-03-24T17:29:02.676Z,37.80
2019-03-24T17:31:32.575Z,35.23
2019-03-24T17:34:03.733Z,34.37
2019-03-24T17:36:33.687Z,34.83
2019-03-24T17:39:05.438Z,33.47
2019-03-24T17:41:35.447Z,34.87
2019-03-24T17:44:05.554Z,34.10
2019-03-24T17:46:35.519Z,35.63
2019-03-24T17:49:06.523Z,35.60
2019-03-24T17:51:36.584Z,35.73
2019-03-24T17:54:07.687Z,34.03
2019-03-24T17:56:37.758Z,33.90
2019-03-24T17:59:07.949Z,34.43
2019-03-24T18:01:37.859Z,35.93
2019-03-24T18:04:07.878Z,35.90
2019-03-24T18:06:37.799Z,35.07
2019-03-24T18:09:08.547Z,35.63
2019-03-24T18:11:38.505Z,35.47
2019-03-24T18:14:09.563Z,34.77
2019-03-24T18:16:39.885Z,33.93
2019-03-24T18:19:10.117Z,34.93
2019-03-24T18:21:40.236Z,34.53
2019-03-24T18:24:10.100Z,32.77
2019-03-24T18:26:40.049Z,34.57
2019-03-24T18:29:10.237Z,34.13
2019-03-24T18:31:40.488Z,33.90
2019-03-24T18:34:10.731Z,33.80
2019-03-24T18:36:40.951Z,33.90
2019-03-24T18:39:10.818Z,35.70
2019-03-24T18:41:40.838Z,35.53
2019-03-24T18:44:12.055Z,35.83
2019-03-24T18:46:42.430Z,35.57
2019-03-24T18:49:12.417Z,32.73
2019-03-24T18:51:54.867Z,32.67
2019-03-24T18:54:24.786Z,30.97
2019-03-24T18:56:54.736Z,29.30
2019-03-24T18:59:25.591Z,30.40
2019-03-24T19:01:55.541Z,30.30
2019-03-24T19:04:25.696Z,29.43
2019-03-24T19:06:55.564Z,30.83
2019-03-24T19:09:25.593Z,28.40
2019-03-24T19:11:55.504Z,29.07
2019-03-24T19:14:25.471Z,28.10
2019-03-24T19:16:55.408Z,29.13
2019-03-24T19:19:25.291Z,28.83
2019-03-24T19:21:55.221Z,27.50
2019-03-24T19:24:25.159Z,28.83
2019-03-24T19:26:55.112Z,26.93
2019-03-24T19:29:25.152Z,26.83
2019-03-24T19:31:55.116Z,26.57
2019-03-24T19:34:25.043Z,26.80
2019-03-24T19:36:56.837Z,28.77
2019-03-24T19:39:27.155Z,27.57
2019-03-24T19:41:57.035Z,27.20
2019-03-24T19:44:26.910Z,27.20
2019-03-24T19:46:56.897Z,27.17
2019-03-24T19:49:26.828Z,27.77
2019-03-24T19:51:56.805Z,28.20
2019-03-24T19:54:28.695Z,26.17
2019-03-24T19:57:00.628Z,26.43
2019-03-24T19:59:30.669Z,27.23
2019-03-24T20:02:02.511Z,26.60
2019-03-24T20:04:34.457Z,26.90
2019-03-24T20:07:05.767Z,25.83
2019-03-24T20:09:39.711Z,24.97
2019-03-24T20:12:10.920Z,26.37
2019-03-24T20:14:42.122Z,26.47
2019-03-24T20:17:13.534Z,24.73
2019-03-24T20:19:45.317Z,25.80
2019-03-24T20:22:17.606Z,26.40
2019-03-24T20:24:50.501Z,25.20
2019-03-24T20:27:22.636Z,25.93
2019-03-24T20:29:54.269Z,25.03
2019-03-24T20:32:26.208Z,27.10
2019-03-24T20:34:58.259Z,25.60
2019-03-24T20:37:29.510Z,25.63
2019-03-24T20:40:00.950Z,25.47
2019-03-24T20:42:32.395Z,26.43
2019-03-24T20:45:03.607Z,26.00
2019-03-24T20:47:34.892Z,25.60
2019-03-24T20:50:10.472Z,23.57
2019-03-24T20:52:42.453Z,25.33
2019-03-24T20:55:16.368Z,26.23
2019-03-24T20:57:48.195Z,23.67
2019-03-24T21:00:21.830Z,24.80
2019-03-24T21:02:52.702Z,24.97
2019-03-24T21:05:24.019Z,25.10
2019-03-24T21:07:56.443Z,23.87
2019-03-24T21:10:29.442Z,24.33
2019-03-24T21:13:01.045Z,24.27
2019-03-24T21:15:33.284Z,25.10
2019-03-24T21:18:04.529Z,24.83
2019-03-24T21:20:36.049Z,23.80
2019-03-24T21:23:08.401Z,24.73
2019-03-24T21:25:40.340Z,24.87
2019-03-24T21:28:11.697Z,25.13
2019-03-24T21:30:44.173Z,25.03
2019-03-24T21:33:15.311Z,24.60
2019-03-24T21:35:47.757Z,25.23
2019-03-24T21:38:18.425Z,25.10
2019-03-24T21:40:48.457Z,26.27
2019-03-24T21:43:19.094Z,24.50
2019-03-24T21:45:48.956Z,25.77
2019-03-24T21:48:18.853Z,24.93
2019-03-24T21:50:48.816Z,26.00
2019-03-24T21:53:18.726Z,25.73
2019-03-24T21:55:48.610Z,27.33
2019-03-24T21:58:18.553Z,27.30
2019-03-24T22:00:48.976Z,25.97
2019-03-24T22:03:18.948Z,25.97
2019-03-24T22:05:48.883Z,26.33
2019-03-24T22:08:18.749Z,26.63
2019-03-24T22:10:48.973Z,26.33
2019-03-24T22:13:18.914Z,26.07
2019-03-24T22:15:49.944Z,25.93
2019-03-24T22:18:19.873Z,24.13
2019-03-24T22:20:53.442Z,24.43
2019-03-24T22:23:23.307Z,24.40
2019-03-24T22:25:53.255Z,25.60
2019-03-24T22:28:23.114Z,23.80
2019-03-24T22:30:53.077Z,24.67
2019-03-24T22:33:23.030Z,23.77
2019-03-24T22:35:53.013Z,24.87
2019-03-24T22:38:22.939Z,23.50
2019-03-24T22:40:52.945Z,24.43
2019-03-24T22:43:22.900Z,23.73
2019-03-24T22:45:52.840Z,24.07
2019-03-24T22:48:22.728Z,23.97
2019-03-24T22:50:52.619Z,24.07
2019-03-24T22:53:22.529Z,24.10
2019-03-24T22:55:52.479Z,23.10
2019-03-24T22:58:22.334Z,25.30
2019-03-24T23:00:54.904Z,23.23
2019-03-24T23:03:25.578Z,24.37
2019-03-24T23:05:56.672Z,25.00
2019-03-24T23:08:26.597Z,25.17
2019-03-24T23:10:56.546Z,25.50
2019-03-24T23:13:26.472Z,23.43
2019-03-24T23:15:57.303Z,25.30
2019-03-24T23:18:27.232Z,25.67
2019-03-24T23:20:57.175Z,24.43
2019-03-24T23:23:27.205Z,24.57
2019-03-24T23:25:57.143Z,23.00
2019-03-24T23:28:27.023Z,24.20
2019-03-24T23:30:56.891Z,24.00
2019-03-24T23:33:26.955Z,24.33
2019-03-24T23:35:56.874Z,23.07
2019-03-24T23:38:26.773Z,21.30
2019-03-24T23:40:56.765Z,21.33
2019-03-24T23:43:26.854Z,20.23
2019-03-24T23:45:56.776Z,20.10
2019-03-24T23:48:26.730Z,19.53
2019-03-24T23:50:56.816Z,18.93
2019-03-24T23:53:26.756Z,18.97
2019-03-24T23:55:56.681Z,17.57
2019-03-24T23:58:39.896Z,19.37
